createdAt,value
2023-01-12T00:00:04.152Z,4.80
2023-01-12T00:02:35.883Z,5.00
2023-01-12T00:05:07.543Z,5.10
2023-01-12T00:07:38.213Z,5.00
2023-01-12T00:10:10.498Z,4.90
2023-01-12T00:12:41.255Z,4.90
2023-01-12T00:15:13.565Z,5.20
2023-01-12T00:17:44.207Z,5.20
2023-01-12T00:20:15.216Z,4.80
2023-01-12T00:22:50.113Z,4.70
2023-01-12T00:25:20.912Z,4.80
2023-01-12T00:27:52.481Z,4.80
2023-01-12T00:30:23.214Z,4.80
2023-01-12T00:32:54.532Z,5.00
2023-01-12T00:35:25.510Z,5.10
2023-01-12T00:37:56.146Z,5.10
2023-01-12T00:40:26.763Z,5.00
2023-01-12T00:43:14.861Z,4.80
2023-01-12T00:45:45.481Z,4.50
2023-01-12T00:48:16.191Z,4.30
2023-01-12T00:50:47.216Z,4.20
2023-01-12T00:53:17.857Z,4.20
2023-01-12T00:55:49.412Z,4.20
2023-01-12T00:58:20.233Z,4.50
2023-01-12T01:00:50.926Z,4.60
2023-01-12T01:03:21.607Z,4.60
2023-01-12T01:05:52.352Z,4.60
2023-01-12T01:08:22.915Z,4.50
2023-01-12T01:11:03.133Z,4.50
2023-01-12T01:13:35.223Z,4.50
2023-01-12T01:16:07.800Z,4.70
2023-01-12T01:18:39.151Z,4.80
2023-01-12T01:21:11.721Z,4.70
2023-01-12T01:23:43.793Z,4.60
2023-01-12T01:26:17.326Z,4.70
2023-01-12T01:28:48.246Z,4.80
2023-01-12T01:31:21.455Z,4.80
2023-01-12T01:33:53.086Z,4.80
2023-01-12T01:36:23.968Z,5.00
2023-01-12T01:38:54.840Z,5.00
2023-01-12T01:41:27.712Z,5.20
2023-01-12T01:44:00.867Z,5.70
2023-01-12T01:46:42.423Z,5.40
2023-01-12T01:49:18.896Z,5.20
2023-01-12T01:51:50.032Z,5.30
2023-01-12T01:54:20.772Z,5.40
2023-01-12T01:56:53.177Z,5.70
2023-01-12T01:59:26.939Z,5.80
2023-01-12T02:01:58.265Z,5.50
2023-01-12T02:04:29.898Z,5.50
2023-01-12T02:07:01.984Z,5.40
2023-01-12T02:09:33.465Z,5.50
2023-01-12T02:12:22.543Z,5.40
2023-01-12T02:15:12.000Z,5.00
2023-01-12T02:17:50.790Z,4.90
2023-01-12T02:23:53.705Z,4.70
2023-01-12T02:27:07.056Z,4.80
2023-01-12T02:30:19.652Z,4.80
2023-01-12T02:32:55.631Z,4.60
2023-01-12T02:35:29.778Z,4.20
2023-01-12T02:38:04.783Z,4.20
2023-01-12T02:40:38.632Z,4.20
2023-01-12T02:43:12.954Z,4.20
2023-01-12T02:45:47.947Z,4.20
2023-01-12T02:48:22.615Z,4.00
2023-01-12T02:50:56.308Z,4.00
2023-01-12T02:53:31.647Z,4.20
2023-01-12T02:56:05.295Z,4.40
2023-01-12T02:58:38.918Z,4.50
2023-01-12T03:01:10.878Z,4.50
2023-01-12T03:03:43.173Z,4.40
2023-01-12T03:06:18.581Z,4.40
2023-01-12T03:08:51.177Z,4.30
2023-01-12T03:11:24.207Z,4.30
2023-01-12T03:13:57.653Z,4.30
2023-01-12T03:16:31.014Z,4.40
2023-01-12T03:19:06.203Z,4.40
2023-01-12T03:21:39.995Z,4.20
2023-01-12T03:24:13.193Z,4.20
2023-01-12T03:26:46.781Z,4.00
2023-01-12T03:29:20.420Z,4.00
2023-01-12T03:31:51.172Z,4.00
2023-01-12T03:34:22.292Z,3.90
2023-01-12T03:36:56.300Z,3.90
2023-01-12T03:39:30.356Z,3.90
2023-01-12T03:42:03.988Z,3.80
2023-01-12T03:44:39.187Z,3.80
2023-01-12T03:47:13.415Z,3.90
2023-01-12T03:49:47.357Z,3.80
2023-01-12T03:52:19.683Z,3.80
2023-01-12T03:54:52.971Z,3.80
2023-01-12T03:57:24.441Z,3.80
2023-01-12T03:59:56.175Z,3.80
2023-01-12T04:02:26.877Z,3.80
2023-01-12T04:04:58.961Z,3.80
2023-01-12T04:07:30.546Z,3.80
2023-01-12T04:10:01.121Z,3.80
2023-01-12T04:12:31.703Z,3.80
2023-01-12T04:15:02.391Z,3.80
2023-01-12T04:17:33.485Z,3.80
2023-01-12T04:20:04.914Z,3.80
2023-01-12T04:22:44.526Z,3.90
2023-01-12T04:25:16.823Z,3.90
2023-01-12T04:27:49.920Z,3.90
2023-01-12T04:30:24.318Z,3.90
2023-01-12T04:32:55.788Z,3.90
2023-01-12T04:35:27.825Z,3.80
2023-01-12T04:40:37.068Z,3.70
2023-01-12T04:43:08.862Z,3.80
2023-01-12T04:45:42.189Z,3.80
2023-01-12T04:48:15.698Z,3.80
2023-01-12T04:50:46.365Z,3.70
2023-01-12T04:53:17.436Z,3.60
2023-01-12T04:55:49.778Z,3.60
2023-01-12T04:58:20.556Z,3.70
2023-01-12T05:00:51.304Z,3.50
2023-01-12T05:03:23.277Z,3.50
2023-01-12T05:05:54.026Z,3.50
2023-01-12T05:08:42.126Z,3.60
2023-01-12T05:11:12.742Z,3.60
2023-01-12T05:13:43.426Z,3.60
2023-01-12T05:16:16.245Z,3.80
2023-01-12T05:18:47.633Z,3.70
2023-01-12T05:21:19.067Z,3.80
2023-01-12T05:23:50.267Z,3.90
2023-01-12T05:26:21.396Z,3.80
2023-01-12T05:28:52.751Z,3.60
2023-01-12T05:31:23.414Z,3.60
2023-01-12T05:33:53.996Z,3.60
2023-01-12T05:36:26.534Z,3.70
2023-01-12T05:38:57.158Z,3.60
2023-01-12T05:41:28.001Z,3.60
2023-01-12T05:43:58.583Z,3.60
2023-01-12T05:46:31.026Z,3.60
2023-01-12T05:49:01.641Z,3.60
2023-01-12T05:51:32.824Z,3.50
2023-01-12T05:54:03.779Z,3.40
2023-01-12T05:56:34.393Z,3.40
2023-01-12T05:59:07.224Z,3.40
2023-01-12T06:01:38.720Z,3.30
2023-01-12T06:04:09.358Z,3.20
2023-01-12T06:06:40.143Z,3.20
2023-01-12T06:09:11.086Z,3.10
2023-01-12T06:11:59.204Z,3.00
2023-01-12T06:14:30.130Z,3.20
2023-01-12T06:17:00.885Z,3.40
2023-01-12T06:19:31.597Z,3.50
2023-01-12T06:22:02.448Z,3.80
2023-01-12T06:24:36.906Z,3.90
2023-01-12T06:27:08.204Z,3.70
2023-01-12T06:29:38.851Z,3.80
2023-01-12T06:32:09.570Z,3.80
2023-01-12T06:34:40.424Z,3.90
2023-01-12T06:37:12.728Z,3.80
2023-01-12T06:39:43.418Z,3.90
2023-01-12T06:42:33.595Z,3.90
2023-01-12T06:45:04.968Z,3.80
2023-01-12T06:47:35.691Z,3.60
2023-01-12T06:50:07.276Z,3.50
2023-01-12T06:52:38.006Z,3.70
2023-01-12T06:55:09.978Z,3.80
2023-01-12T06:57:40.661Z,3.90
2023-01-12T07:00:14.139Z,3.90
2023-01-12T07:02:44.934Z,3.90
2023-01-12T07:05:15.739Z,3.80
2023-01-12T07:07:46.412Z,3.70
2023-01-12T07:10:17.660Z,3.60
2023-01-12T07:12:48.375Z,3.50
2023-01-12T07:15:19.421Z,3.40
2023-01-12T07:17:51.555Z,3.40
2023-01-12T07:20:22.181Z,3.40
2023-01-12T07:22:53.117Z,3.30
2023-01-12T07:25:25.213Z,3.40
2023-01-12T07:27:57.757Z,3.30
2023-01-12T07:30:29.158Z,3.20
2023-01-12T07:35:46.823Z,3.10
2023-01-12T07:38:17.484Z,3.20
2023-01-12T07:40:48.116Z,3.40
2023-01-12T07:43:19.347Z,3.40
2023-01-12T07:45:50.131Z,3.60
2023-01-12T07:48:21.835Z,3.60
2023-01-12T07:50:52.901Z,3.70
2023-01-12T07:53:24.128Z,3.80
2023-01-12T07:55:54.825Z,3.70
2023-01-12T07:58:26.999Z,3.70
2023-01-12T08:01:00.528Z,3.70
2023-01-12T08:03:31.204Z,3.70
2023-01-12T08:06:03.216Z,3.60
2023-01-12T08:08:33.926Z,3.50
2023-01-12T08:11:05.132Z,3.60
2023-01-12T08:13:35.937Z,3.80
2023-01-12T08:16:10.356Z,3.80
2023-01-12T08:18:44.288Z,3.90
2023-01-12T08:21:17.911Z,3.90
2023-01-12T08:23:51.057Z,4.00
2023-01-12T08:26:24.777Z,4.00
2023-01-12T08:28:58.182Z,4.00
2023-01-12T08:31:29.786Z,3.90
2023-01-12T08:34:00.601Z,3.90
2023-01-12T08:36:33.398Z,4.00
2023-01-12T08:39:04.988Z,4.20
2023-01-12T08:41:37.387Z,4.30
2023-01-12T08:44:11.233Z,4.50
2023-01-12T08:46:48.119Z,4.60
2023-01-12T08:49:22.331Z,4.60
2023-01-12T08:51:54.240Z,4.60
2023-01-12T08:54:25.512Z,4.60
2023-01-12T08:56:56.097Z,4.60
2023-01-12T08:59:26.805Z,4.60
2023-01-12T09:01:57.546Z,4.80
2023-01-12T09:04:28.413Z,4.70
2023-01-12T09:07:00.171Z,4.60
2023-01-12T09:09:31.087Z,4.80
2023-01-12T09:12:01.963Z,5.10
2023-01-12T09:14:32.756Z,5.00
2023-01-12T09:17:03.431Z,4.90
2023-01-12T09:19:34.408Z,4.80
2023-01-12T09:22:04.990Z,4.80
2023-01-12T09:24:36.777Z,4.90
2023-01-12T09:27:07.559Z,4.90
2023-01-12T09:29:38.232Z,5.00
2023-01-12T09:32:09.119Z,5.20
2023-01-12T09:34:39.794Z,5.20
2023-01-12T09:37:10.686Z,5.50
2023-01-12T09:39:41.357Z,5.60
2023-01-12T09:45:13.469Z,5.80
2023-01-12T09:47:53.653Z,5.70
2023-01-12T09:50:28.435Z,5.60
2023-01-12T09:55:42.221Z,5.20
2023-01-12T09:58:33.001Z,5.20
2023-01-12T10:01:06.329Z,5.20
2023-01-12T10:03:39.444Z,5.40
2023-01-12T10:06:15.145Z,5.50
2023-01-12T10:08:48.914Z,5.60
2023-01-12T10:11:23.278Z,5.50
2023-01-12T10:14:37.313Z,5.50
2023-01-12T10:17:25.807Z,5.70
2023-01-12T10:20:01.687Z,5.70
2023-01-12T10:22:54.082Z,6.00
2023-01-12T10:25:37.070Z,5.90
2023-01-12T10:28:15.491Z,5.90
2023-01-12T10:30:47.237Z,6.10
2023-01-12T10:33:20.774Z,6.30
2023-01-12T10:35:55.830Z,6.30
2023-01-12T10:38:29.609Z,6.50
2023-01-12T10:41:17.348Z,6.70
2023-01-12T10:43:50.803Z,6.80
2023-01-12T10:46:24.635Z,6.70
2023-01-12T10:48:57.200Z,6.60
2023-01-12T10:51:30.384Z,6.60
2023-01-12T10:54:04.499Z,6.70
2023-01-12T10:56:39.446Z,6.60
2023-01-12T10:59:17.967Z,6.80
2023-01-12T11:01:52.141Z,7.10
2023-01-12T11:04:25.997Z,7.50
2023-01-12T11:07:05.072Z,7.60
2023-01-12T11:09:35.428Z,7.80
2023-01-12T11:12:09.001Z,7.80
2023-01-12T11:14:40.044Z,8.10
2023-01-12T11:17:28.907Z,8.20
2023-01-12T11:20:02.096Z,8.00
2023-01-12T11:22:36.392Z,8.00
2023-01-12T11:25:11.125Z,8.00
2023-01-12T11:27:45.839Z,8.40
2023-01-12T11:30:22.024Z,8.90
2023-01-12T11:32:56.742Z,9.40
2023-01-12T11:35:35.016Z,9.40
2023-01-12T11:38:13.117Z,9.50
2023-01-12T11:40:45.931Z,9.90
2023-01-12T11:43:43.132Z,10.20
2023-01-12T11:46:21.175Z,10.30
2023-01-12T11:48:58.076Z,10.10
2023-01-12T11:51:29.120Z,10.10
2023-01-12T11:54:00.995Z,10.00
2023-01-12T11:57:12.228Z,9.50
2023-01-12T11:59:47.252Z,9.40
2023-01-12T12:02:26.712Z,9.30
2023-01-12T12:05:20.399Z,9.40
2023-01-12T12:08:02.935Z,9.40
2023-01-12T12:10:37.672Z,9.50
2023-01-12T12:13:32.735Z,9.50
2023-01-12T12:16:22.571Z,9.50
2023-01-12T12:18:59.409Z,9.30
2023-01-12T12:21:42.449Z,9.30
2023-01-12T12:24:19.457Z,9.00
2023-01-12T12:26:54.926Z,8.90
2023-01-12T12:29:33.421Z,8.70
2023-01-12T12:32:18.473Z,8.80
2023-01-12T12:35:16.615Z,8.90
2023-01-12T12:37:54.496Z,8.80
2023-01-12T12:40:37.794Z,8.70
2023-01-12T12:43:30.174Z,8.50
2023-01-12T12:46:05.501Z,8.70
2023-01-12T12:48:39.679Z,8.60
2023-01-12T12:51:13.194Z,8.70
2023-01-12T12:53:46.098Z,8.70
2023-01-12T12:56:20.852Z,8.80
2023-01-12T12:58:52.916Z,8.70
2023-01-12T13:01:57.497Z,8.80
2023-01-12T13:05:04.875Z,8.90
2023-01-12T13:07:37.630Z,8.90
2023-01-12T13:10:32.678Z,8.90
2023-01-12T13:13:08.816Z,8.90
2023-01-12T13:15:40.230Z,9.00
2023-01-12T13:18:15.220Z,8.90
2023-01-12T13:20:59.091Z,8.90
2023-01-12T13:23:52.133Z,8.90
2023-01-12T13:26:55.605Z,8.90
2023-01-12T13:29:46.275Z,9.00
2023-01-12T13:36:10.918Z,9.10
2023-01-12T13:39:07.181Z,9.00
2023-01-12T13:42:10.205Z,9.00
2023-01-12T13:44:44.741Z,8.90
2023-01-12T13:47:19.598Z,9.00
2023-01-12T13:49:53.933Z,9.00
2023-01-12T13:52:28.691Z,8.90
2023-01-12T13:54:59.809Z,9.00
2023-01-12T13:57:32.725Z,9.10
2023-01-12T14:00:07.933Z,9.00
2023-01-12T14:02:40.190Z,8.90
2023-01-12T14:05:22.544Z,8.90
2023-01-12T14:07:58.916Z,8.90
2023-01-12T14:10:36.480Z,8.90
2023-01-12T14:13:15.874Z,8.90
2023-01-12T14:16:04.357Z,9.00
2023-01-12T14:18:46.618Z,9.00
2023-01-12T14:21:30.301Z,9.00
2023-01-12T14:24:17.281Z,8.90
2023-01-12T14:26:48.719Z,8.80
2023-01-12T14:29:19.817Z,8.90
2023-01-12T14:31:52.524Z,8.90
2023-01-12T14:34:31.688Z,8.80
2023-01-12T14:37:03.917Z,8.90
2023-01-12T14:39:39.093Z,8.90
2023-01-12T14:42:36.178Z,8.90
2023-01-12T14:45:36.688Z,8.90
2023-01-12T14:48:23.645Z,9.00
2023-01-12T14:51:17.628Z,9.00
2023-01-12T14:53:49.942Z,9.00
2023-01-12T14:56:24.043Z,8.90
2023-01-12T14:58:55.454Z,8.90
2023-01-12T15:01:33.965Z,8.80
2023-01-12T15:04:05.967Z,8.80
2023-01-12T15:06:41.088Z,8.80
2023-01-12T15:09:29.610Z,8.70
2023-01-12T15:12:00.729Z,8.50
2023-01-12T15:14:32.044Z,8.60
2023-01-12T15:17:28.183Z,8.60
2023-01-12T15:20:51.952Z,8.60
2023-01-12T15:23:44.252Z,8.50
2023-01-12T15:26:15.225Z,8.40
2023-01-12T15:28:47.460Z,8.50
2023-01-12T15:31:22.919Z,8.40
2023-01-12T15:33:53.953Z,8.40
2023-01-12T15:36:24.955Z,8.40
2023-01-12T15:38:55.832Z,8.40
2023-01-12T15:41:48.000Z,8.30
2023-01-12T15:44:20.456Z,8.40
2023-01-12T15:46:51.190Z,8.40
2023-01-12T15:49:22.517Z,8.30
2023-01-12T15:51:54.030Z,8.30
2023-01-12T15:54:25.114Z,8.30
2023-01-12T15:56:57.641Z,8.30
2023-01-12T15:59:28.683Z,8.30
2023-01-12T16:01:59.683Z,8.30
2023-01-12T16:04:46.037Z,8.30
2023-01-12T16:07:03.228Z,8.10
2023-01-12T16:09:34.226Z,8.00
2023-01-12T16:12:05.676Z,8.00
2023-01-12T16:14:37.137Z,7.90
2023-01-12T16:17:07.978Z,7.90
2023-01-12T16:19:42.734Z,7.90
2023-01-12T16:22:21.689Z,7.80
2023-01-12T16:24:56.643Z,7.80
2023-01-12T16:27:31.037Z,7.70
2023-01-12T16:30:04.089Z,7.60
2023-01-12T16:32:36.200Z,7.60
2023-01-12T16:35:09.622Z,7.60
2023-01-12T16:37:43.193Z,7.50
2023-01-12T16:40:15.775Z,7.60
2023-01-12T16:42:46.847Z,7.50
2023-01-12T16:45:18.567Z,7.40
2023-01-12T16:47:49.506Z,7.30
2023-01-12T16:50:20.521Z,7.20
2023-01-12T16:52:51.410Z,7.20
2023-01-12T16:55:22.317Z,7.20
2023-01-12T16:57:53.118Z,7.20
2023-01-12T17:00:26.403Z,7.20
2023-01-12T17:02:57.757Z,7.20
2023-01-12T17:05:29.302Z,7.30
2023-01-12T17:08:01.542Z,7.30
2023-01-12T17:10:33.619Z,7.30
2023-01-12T17:13:05.401Z,7.20
2023-01-12T17:18:15.677Z,7.50
2023-01-12T17:20:46.675Z,7.50
2023-01-12T17:23:17.903Z,7.50
2023-01-12T17:25:48.785Z,7.50
2023-01-12T17:28:19.639Z,7.40
2023-01-12T17:30:50.668Z,7.40
2023-01-12T17:33:22.096Z,7.30
2023-01-12T17:35:54.509Z,7.30
2023-01-12T17:38:25.561Z,7.20
2023-01-12T17:40:57.468Z,7.10
2023-01-12T17:43:28.813Z,7.00
2023-01-12T17:46:01.518Z,7.00
2023-01-12T17:48:32.734Z,7.00
2023-01-12T17:51:05.331Z,6.90
2023-01-12T17:53:36.236Z,7.00
2023-01-12T17:56:09.996Z,7.10
2023-01-12T17:58:41.918Z,7.10
2023-01-12T18:01:16.336Z,7.00
2023-01-12T18:04:06.514Z,7.00
2023-01-12T18:06:38.366Z,7.10
2023-01-12T18:09:11.203Z,7.20
2023-01-12T18:11:42.461Z,7.30
2023-01-12T18:14:13.938Z,7.30
2023-01-12T18:16:45.101Z,7.30
2023-01-12T18:19:16.212Z,7.20
2023-01-12T18:21:46.981Z,7.10
2023-01-12T18:24:17.820Z,7.10
2023-01-12T18:26:48.568Z,7.00
2023-01-12T18:29:19.695Z,7.00
2023-01-12T18:31:50.587Z,7.00
2023-01-12T18:34:21.649Z,6.90
2023-01-12T18:36:52.532Z,6.80
2023-01-12T18:39:23.396Z,6.80
2023-01-12T18:42:12.258Z,6.80
2023-01-12T18:44:43.100Z,6.70
2023-01-12T18:47:34.712Z,6.80
2023-01-12T18:50:24.896Z,6.80
2023-01-12T18:53:12.967Z,6.90
2023-01-12T18:55:44.078Z,6.90
2023-01-12T18:58:14.913Z,7.00
2023-01-12T19:00:45.779Z,7.00
2023-01-12T19:03:17.185Z,7.20
2023-01-12T19:05:51.574Z,7.40
2023-01-12T19:08:40.082Z,7.40
2023-01-12T19:11:13.152Z,7.30
2023-01-12T19:14:02.039Z,7.20
2023-01-12T19:16:50.631Z,7.10
2023-01-12T19:19:24.580Z,7.00
2023-01-12T19:22:13.248Z,7.00
2023-01-12T19:25:01.474Z,6.90
2023-01-12T19:27:56.904Z,6.90
2023-01-12T19:30:27.893Z,6.80
2023-01-12T19:32:59.563Z,6.80
2023-01-12T19:35:30.689Z,6.70
2023-01-12T19:38:01.604Z,6.60
2023-01-12T19:40:36.316Z,6.40
2023-01-12T19:43:14.694Z,6.40
2023-01-12T19:45:47.787Z,6.40
2023-01-12T19:48:20.499Z,6.40
2023-01-12T19:50:51.886Z,6.40
2023-01-12T19:53:26.093Z,6.40
2023-01-12T19:55:58.469Z,6.50
2023-01-12T19:58:29.613Z,6.50
2023-01-12T20:01:01.179Z,6.40
2023-01-12T20:03:32.396Z,6.40
2023-01-12T20:06:07.718Z,6.50
2023-01-12T20:08:41.560Z,6.70
2023-01-12T20:11:13.160Z,6.70
2023-01-12T20:13:44.099Z,6.70
2023-01-12T20:16:16.196Z,6.60
2023-01-12T20:18:47.403Z,6.70
2023-01-12T20:21:18.528Z,6.60
2023-01-12T20:23:49.390Z,6.40
2023-01-12T20:26:20.227Z,6.40
2023-01-12T20:28:51.230Z,6.40
2023-01-12T20:31:23.572Z,6.40
2023-01-12T20:33:54.663Z,6.30
2023-01-12T20:36:27.517Z,6.10
2023-01-12T20:39:00.054Z,6.10
2023-01-12T20:41:30.757Z,6.10
2023-01-12T20:44:01.344Z,6.20
2023-01-12T20:46:32.154Z,6.10
2023-01-12T20:49:03.279Z,6.20
2023-01-12T20:51:34.214Z,6.20
2023-01-12T20:54:05.949Z,6.30
2023-01-12T20:56:36.685Z,6.40
2023-01-12T20:59:07.619Z,6.40
2023-01-12T21:01:38.218Z,6.40
2023-01-12T21:04:09.024Z,6.40
2023-01-12T21:06:41.141Z,6.30
2023-01-12T21:09:11.903Z,6.20
2023-01-12T21:11:43.182Z,6.10
2023-01-12T21:14:13.917Z,6.20
2023-01-12T21:16:46.385Z,6.30
2023-01-12T21:19:17.061Z,6.40
2023-01-12T21:21:47.813Z,6.40
2023-01-12T21:24:18.533Z,6.40
2023-01-12T21:26:49.338Z,6.40
2023-01-12T21:29:20.214Z,6.30
2023-01-12T21:31:50.974Z,6.20
2023-01-12T21:34:21.623Z,6.40
2023-01-12T21:36:52.200Z,6.40
2023-01-12T21:39:22.819Z,6.40
2023-01-12T21:42:10.971Z,6.40
2023-01-12T21:44:41.672Z,6.30
2023-01-12T21:47:12.439Z,6.30
2023-01-12T21:49:43.073Z,6.20
2023-01-12T21:52:13.982Z,6.10
2023-01-12T21:54:44.801Z,6.10
2023-01-12T21:57:15.365Z,6.10
2023-01-12T21:59:45.986Z,6.10
2023-01-12T22:02:16.673Z,6.00
2023-01-12T22:04:47.460Z,6.00
2023-01-12T22:07:18.121Z,6.00
2023-01-12T22:09:48.777Z,6.10
2023-01-12T22:12:19.380Z,6.10
2023-01-12T22:14:50.144Z,6.10
2023-01-12T22:17:20.743Z,6.20
2023-01-12T22:19:51.340Z,6.20
2023-01-12T22:22:21.934Z,6.00
2023-01-12T22:24:52.634Z,6.00
2023-01-12T22:27:25.709Z,5.90
2023-01-12T22:29:57.060Z,6.00
2023-01-12T22:32:27.658Z,6.10
2023-01-12T22:34:59.245Z,6.10
2023-01-12T22:37:30.343Z,6.00
2023-01-12T22:40:01.375Z,6.00
2023-01-12T22:42:50.897Z,6.00
2023-01-12T22:45:22.015Z,5.90
2023-01-12T22:47:55.292Z,6.00
2023-01-12T22:50:26.655Z,6.00
2023-01-12T22:52:57.414Z,5.90
2023-01-12T22:55:28.308Z,6.10
2023-01-12T22:57:58.990Z,6.20
2023-01-12T23:00:29.635Z,6.10
2023-01-12T23:03:03.333Z,6.10
2023-01-12T23:05:36.760Z,6.00
2023-01-12T23:08:08.859Z,5.60
2023-01-12T23:10:39.526Z,5.40
2023-01-12T23:13:19.254Z,5.20
2023-01-12T23:15:53.698Z,5.20
2023-01-12T23:18:28.571Z,5.20
2023-01-12T23:21:04.578Z,5.30
2023-01-12T23:23:35.241Z,5.30
2023-01-12T23:26:09.074Z,5.50
2023-01-12T23:28:43.230Z,5.60
2023-01-12T23:31:15.973Z,5.80
2023-01-12T23:33:46.897Z,6.00
2023-01-12T23:36:20.039Z,5.90
2023-01-12T23:38:54.905Z,6.00
2023-01-12T23:41:27.771Z,5.80
2023-01-12T23:44:01.156Z,5.60
2023-01-12T23:46:34.022Z,5.50
2023-01-12T23:49:06.031Z,5.30
2023-01-12T23:51:37.026Z,5.10
2023-01-12T23:54:08.108Z,5.00
2023-01-12T23:56:38.732Z,5.00
2023-01-12T23:59:09.383Z,4.80
